sensor_id;sensor_type;location;lat;lon;timestamp;pressure;altitude;pressure_sealevel;temperature;humidity
71504;BME280;59323;50.874;7.028;2023-04-19T00:00:28;102147.63;;;11.67;70.25
71504;BME280;59323;50.874;7.028;2023-04-19T00:02:53;102147.91;;;11.74;70.36
71504;BME280;59323;50.874;7.028;2023-04-19T00:05:20;102151.63;;;11.70;70.26
71504;BME280;59323;50.874;7.028;2023-04-19T00:07:47;102144.47;;;11.65;70.40
71504;BME280;59323;50.874;7.028;2023-04-19T00:10:13;102140.25;;;11.68;69.68
71504;BME280;59323;50.874;7.028;2023-04-19T00:12:39;102140.72;;;11.70;70.11
71504;BME280;59323;50.874;7.028;2023-04-19T00:15:05;102138.22;;;11.65;70.47
71504;BME280;59323;50.874;7.028;2023-04-19T00:17:30;102137.09;;;11.66;70.85
71504;BME280;59323;50.874;7.028;2023-04-19T00:19:56;102144.66;;;11.60;70.99
71504;BME280;59323;50.874;7.028;2023-04-19T00:22:22;102143.31;;;11.66;70.57
71504;BME280;59323;50.874;7.028;2023-04-19T00:24:47;102131.97;;;11.64;70.98
71504;BME280;59323;50.874;7.028;2023-04-19T00:27:12;102129.03;;;11.69;70.68
71504;BME280;59323;50.874;7.028;2023-04-19T00:29:38;102142.53;;;11.66;71.09
71504;BME280;59323;50.874;7.028;2023-04-19T00:32:03;102133.00;;;11.60;71.33
71504;BME280;59323;50.874;7.028;2023-04-19T00:34:30;102128.56;;;11.55;71.47
71504;BME280;59323;50.874;7.028;2023-04-19T00:36:55;102131.59;;;11.54;71.48
71504;BME280;59323;50.874;7.028;2023-04-19T00:39:21;102133.88;;;11.52;71.64
71504;BME280;59323;50.874;7.028;2023-04-19T00:41:47;102135.13;;;11.54;71.58
71504;BME280;59323;50.874;7.028;2023-04-19T00:44:12;102130.25;;;11.60;71.87
71504;BME280;59323;50.874;7.028;2023-04-19T00:46:38;102126.97;;;11.54;71.89
71504;BME280;59323;50.874;7.028;2023-04-19T00:49:03;102121.50;;;11.54;71.79
71504;BME280;59323;50.874;7.028;2023-04-19T00:51:29;102122.84;;;11.48;72.06
71504;BME280;59323;50.874;7.028;2023-04-19T00:53:55;102134.53;;;11.49;72.51
71504;BME280;59323;50.874;7.028;2023-04-19T00:56:21;102116.50;;;11.44;72.34
71504;BME280;59323;50.874;7.028;2023-04-19T00:58:47;102114.78;;;11.39;72.80
71504;BME280;59323;50.874;7.028;2023-04-19T01:01:13;102116.25;;;11.37;73.26
71504;BME280;59323;50.874;7.028;2023-04-19T01:03:38;102108.88;;;11.37;72.66
71504;BME280;59323;50.874;7.028;2023-04-19T01:06:04;102110.69;;;11.33;72.98
71504;BME280;59323;50.874;7.028;2023-04-19T01:08:29;102113.41;;;11.33;73.17
71504;BME280;59323;50.874;7.028;2023-04-19T01:10:55;102109.91;;;11.45;72.84
71504;BME280;59323;50.874;7.028;2023-04-19T01:13:20;102111.72;;;11.41;73.00
71504;BME280;59323;50.874;7.028;2023-04-19T01:15:45;102112.84;;;11.40;73.29
71504;BME280;59323;50.874;7.028;2023-04-19T01:18:11;102102.31;;;11.38;72.85
71504;BME280;59323;50.874;7.028;2023-04-19T01:20:37;102114.13;;;11.42;73.36
71504;BME280;59323;50.874;7.028;2023-04-19T01:23:03;102102.66;;;11.37;73.33
71504;BME280;59323;50.874;7.028;2023-04-19T01:25:28;102100.84;;;11.41;73.14
71504;BME280;59323;50.874;7.028;2023-04-19T01:27:54;102097.31;;;11.40;72.95
71504;BME280;59323;50.874;7.028;2023-04-19T01:30:19;102101.38;;;11.34;72.91
71504;BME280;59323;50.874;7.028;2023-04-19T01:32:44;102102.53;;;11.33;73.35
71504;BME280;59323;50.874;7.028;2023-04-19T01:35:10;102091.97;;;11.32;73.51
71504;BME280;59323;50.874;7.028;2023-04-19T01:37:36;102099.34;;;11.31;73.71
71504;BME280;59323;50.874;7.028;2023-04-19T01:40:05;102096.03;;;11.26;73.82
71504;BME280;59323;50.874;7.028;2023-04-19T01:42:31;102091.34;;;11.14;74.58
71504;BME280;59323;50.874;7.028;2023-04-19T01:44:56;102101.09;;;11.15;74.59
71504;BME280;59323;50.874;7.028;2023-04-19T01:47:22;102092.53;;;11.04;74.76
71504;BME280;59323;50.874;7.028;2023-04-19T01:49:49;102091.59;;;11.00;74.66
71504;BME280;59323;50.874;7.028;2023-04-19T01:52:14;102087.16;;;10.96;75.44
71504;BME280;59323;50.874;7.028;2023-04-19T01:54:39;102091.34;;;10.93;74.99
71504;BME280;59323;50.874;7.028;2023-04-19T01:57:05;102082.25;;;10.89;75.33
71504;BME280;59323;50.874;7.028;2023-04-19T01:59:30;102085.53;;;10.83;75.22
71504;BME280;59323;50.874;7.028;2023-04-19T02:01:55;102081.75;;;10.75;76.08
71504;BME280;59323;50.874;7.028;2023-04-19T02:04:21;102080.94;;;10.74;75.99
71504;BME280;59323;50.874;7.028;2023-04-19T02:06:46;102082.59;;;10.67;76.75
71504;BME280;59323;50.874;7.028;2023-04-19T02:09:11;102074.31;;;10.63;76.34
71504;BME280;59323;50.874;7.028;2023-04-19T02:11:37;102078.50;;;10.61;76.81
71504;BME280;59323;50.874;7.028;2023-04-19T02:14:03;102080.56;;;10.64;77.12
71504;BME280;59323;50.874;7.028;2023-04-19T02:16:28;102079.44;;;10.65;76.64
71504;BME280;59323;50.874;7.028;2023-04-19T02:18:53;102074.19;;;10.60;77.06
71504;BME280;59323;50.874;7.028;2023-04-19T02:21:19;102075.78;;;10.61;77.41
71504;BME280;59323;50.874;7.028;2023-04-19T02:23:44;102073.06;;;10.61;77.22
71504;BME280;59323;50.874;7.028;2023-04-19T02:26:10;102074.19;;;10.60;77.40
71504;BME280;59323;50.874;7.028;2023-04-19T02:28:35;102069.09;;;10.58;77.07
71504;BME280;59323;50.874;7.028;2023-04-19T02:31:05;102071.00;;;10.58;77.90
71504;BME280;59323;50.874;7.028;2023-04-19T02:33:31;102080.56;;;10.64;77.86
71504;BME280;59323;50.874;7.028;2023-04-19T02:35:56;102071.13;;;10.61;78.08
71504;BME280;59323;50.874;7.028;2023-04-19T02:38:22;102067.28;;;10.62;78.13
71504;BME280;59323;50.874;7.028;2023-04-19T02:40:47;102080.88;;;10.62;78.15
71504;BME280;59323;50.874;7.028;2023-04-19T02:43:13;102076.72;;;10.65;78.66
71504;BME280;59323;50.874;7.028;2023-04-19T02:45:38;102074.13;;;10.68;78.96
71504;BME280;59323;50.874;7.028;2023-04-19T02:48:05;102070.22;;;10.78;78.22
71504;BME280;59323;50.874;7.028;2023-04-19T02:50:31;102073.72;;;10.78;78.35
71504;BME280;59323;50.874;7.028;2023-04-19T02:52:57;102064.50;;;10.71;78.38
71504;BME280;59323;50.874;7.028;2023-04-19T02:55:22;102063.72;;;10.70;78.58
71504;BME280;59323;50.874;7.028;2023-04-19T02:57:47;102063.25;;;10.68;78.97
71504;BME280;59323;50.874;7.028;2023-04-19T03:00:13;102067.56;;;10.69;78.79
71504;BME280;59323;50.874;7.028;2023-04-19T03:02:40;102070.41;;;10.73;79.16
71504;BME280;59323;50.874;7.028;2023-04-19T03:05:05;102072.78;;;10.74;79.15
71504;BME280;59323;50.874;7.028;2023-04-19T03:07:34;102062.13;;;10.69;79.05
71504;BME280;59323;50.874;7.028;2023-04-19T03:09:59;102064.84;;;10.69;79.28
71504;BME280;59323;50.874;7.028;2023-04-19T03:12:25;102056.34;;;10.71;79.19
71504;BME280;59323;50.874;7.028;2023-04-19T03:14:50;102062.72;;;10.75;79.69
71504;BME280;59323;50.874;7.028;2023-04-19T03:17:15;102060.00;;;10.75;79.54
71504;BME280;59323;50.874;7.028;2023-04-19T03:19:41;102064.63;;;10.74;80.00
71504;BME280;59323;50.874;7.028;2023-04-19T03:22:06;102062.06;;;10.78;79.77
71504;BME280;59323;50.874;7.028;2023-04-19T03:24:31;102060.47;;;10.77;79.54
71504;BME280;59323;50.874;7.028;2023-04-19T03:26:57;102055.81;;;10.77;80.14
71504;BME280;59323;50.874;7.028;2023-04-19T03:29:22;102054.22;;;10.76;79.90
71504;BME280;59323;50.874;7.028;2023-04-19T03:31:47;102052.63;;;10.75;80.16
71504;BME280;59323;50.874;7.028;2023-04-19T03:34:16;102056.75;;;10.82;79.58
71504;BME280;59323;50.874;7.028;2023-04-19T03:36:43;102056.88;;;10.85;79.60
71504;BME280;59323;50.874;7.028;2023-04-19T03:39:08;102055.59;;;10.83;79.69
71504;BME280;59323;50.874;7.028;2023-04-19T03:41:34;102044.59;;;10.79;79.68
71504;BME280;59323;50.874;7.028;2023-04-19T03:43:59;102050.84;;;10.79;80.02
71504;BME280;59323;50.874;7.028;2023-04-19T03:46:24;102049.50;;;10.86;79.71
71504;BME280;59323;50.874;7.028;2023-04-19T03:48:50;102037.50;;;10.87;79.79
71504;BME280;59323;50.874;7.028;2023-04-19T03:51:16;102042.13;;;10.86;79.58
71504;BME280;59323;50.874;7.028;2023-04-19T03:53:42;102034.97;;;10.82;79.55
71504;BME280;59323;50.874;7.028;2023-04-19T03:56:07;102046.00;;;10.85;79.86
71504;BME280;59323;50.874;7.028;2023-04-19T03:58:33;102039.63;;;10.81;80.11
71504;BME280;59323;50.874;7.028;2023-04-19T04:00:58;102035.91;;;10.86;80.04
71504;BME280;59323;50.874;7.028;2023-04-19T04:03:24;102036.00;;;10.77;80.18
71504;BME280;59323;50.874;7.028;2023-04-19T04:05:50;102043.72;;;10.87;79.75
71504;BME280;59323;50.874;7.028;2023-04-19T04:08:15;102034.31;;;10.85;79.71
71504;BME280;59323;50.874;7.028;2023-04-19T04:10:40;102043.84;;;10.91;79.70
71504;BME280;59323;50.874;7.028;2023-04-19T04:13:06;102047.59;;;10.86;80.24
71504;BME280;59323;50.874;7.028;2023-04-19T04:15:31;102044.88;;;10.86;80.08
71504;BME280;59323;50.874;7.028;2023-04-19T04:17:56;102055.75;;;10.86;80.17
71504;BME280;59323;50.874;7.028;2023-04-19T04:20:22;102051.44;;;10.85;79.85
71504;BME280;59323;50.874;7.028;2023-04-19T04:22:47;102041.75;;;10.75;80.69
71504;BME280;59323;50.874;7.028;2023-04-19T04:25:18;102042.28;;;10.69;80.97
71504;BME280;59323;50.874;7.028;2023-04-19T04:27:49;102052.16;;;10.73;81.06
71504;BME280;59323;50.874;7.028;2023-04-19T04:30:15;102058.34;;;10.83;80.66
71504;BME280;59323;50.874;7.028;2023-04-19T04:32:41;102046.06;;;10.76;81.03
71504;BME280;59323;50.874;7.028;2023-04-19T04:35:25;102042.56;;;10.76;81.53
71504;BME280;59323;50.874;7.028;2023-04-19T04:37:51;102041.97;;;10.70;81.53
71504;BME280;59323;50.874;7.028;2023-04-19T04:40:20;102050.59;;;10.72;81.40
71504;BME280;59323;50.874;7.028;2023-04-19T04:42:46;102045.59;;;10.74;81.53
71504;BME280;59323;50.874;7.028;2023-04-19T04:45:11;102044.16;;;10.77;81.62
71504;BME280;59323;50.874;7.028;2023-04-19T04:47:37;102038.13;;;10.71;81.41
71504;BME280;59323;50.874;7.028;2023-04-19T04:50:02;102039.03;;;10.75;81.37
71504;BME280;59323;50.874;7.028;2023-04-19T04:52:28;102046.06;;;10.76;81.60
71504;BME280;59323;50.874;7.028;2023-04-19T04:54:53;102036.31;;;10.75;81.33
71504;BME280;59323;50.874;7.028;2023-04-19T04:57:19;102044.16;;;10.77;81.42
71504;BME280;59323;50.874;7.028;2023-04-19T04:59:44;102042.00;;;10.83;81.79
71504;BME280;59323;50.874;7.028;2023-04-19T05:02:13;102036.00;;;10.77;81.23
71504;BME280;59323;50.874;7.028;2023-04-19T05:04:39;102051.50;;;10.76;81.44
71504;BME280;59323;50.874;7.028;2023-04-19T05:07:04;102054.03;;;10.82;81.87
71504;BME280;59323;50.874;7.028;2023-04-19T05:09:30;102051.31;;;10.82;81.43
71504;BME280;59323;50.874;7.028;2023-04-19T05:11:55;102043.16;;;10.82;81.81
71504;BME280;59323;50.874;7.028;2023-04-19T05:14:21;102051.75;;;10.84;81.42
71504;BME280;59323;50.874;7.028;2023-04-19T05:16:46;102035.66;;;10.78;81.56
71504;BME280;59323;50.874;7.028;2023-04-19T05:19:11;102046.06;;;10.76;81.41
71504;BME280;59323;50.874;7.028;2023-04-19T05:21:37;102055.16;;;10.80;81.64
71504;BME280;59323;50.874;7.028;2023-04-19T05:24:02;102042.22;;;10.77;81.68
71504;BME280;59323;50.874;7.028;2023-04-19T05:26:28;102042.56;;;10.76;82.11
71504;BME280;59323;50.874;7.028;2023-04-19T05:28:53;102040.16;;;10.74;81.74
71504;BME280;59323;50.874;7.028;2023-04-19T05:31:19;102034.59;;;10.71;81.58
71504;BME280;59323;50.874;7.028;2023-04-19T05:33:45;102036.66;;;10.74;81.50
71504;BME280;59323;50.874;7.028;2023-04-19T05:36:10;102037.25;;;10.79;80.86
71504;BME280;59323;50.874;7.028;2023-04-19T05:38:36;102034.84;;;10.78;80.99
71504;BME280;59323;50.874;7.028;2023-04-19T05:41:02;102029.28;;;10.74;80.56
71504;BME280;59323;50.874;7.028;2023-04-19T05:43:28;102033.59;;;10.75;80.92
71504;BME280;59323;50.874;7.028;2023-04-19T05:45:53;102027.16;;;10.80;79.99
71504;BME280;59323;50.874;7.028;2023-04-19T05:48:18;102029.41;;;10.78;80.37
71504;BME280;59323;50.874;7.028;2023-04-19T05:50:44;102030.22;;;10.78;80.22
71504;BME280;59323;50.874;7.028;2023-04-19T05:53:09;102039.28;;;10.83;79.97
71504;BME280;59323;50.874;7.028;2023-04-19T05:55:35;102039.28;;;10.83;80.30
71504;BME280;59323;50.874;7.028;2023-04-19T05:58:00;102033.53;;;10.84;79.92
71504;BME280;59323;50.874;7.028;2023-04-19T06:00:25;102023.78;;;10.83;79.69
71504;BME280;59323;50.874;7.028;2023-04-19T06:02:52;102033.66;;;10.88;79.52
71504;BME280;59323;50.874;7.028;2023-04-19T06:05:17;102033.53;;;10.84;80.00
71504;BME280;59323;50.874;7.028;2023-04-19T06:07:43;102026.69;;;10.78;79.54
71504;BME280;59323;50.874;7.028;2023-04-19T06:10:08;102033.84;;;10.83;79.20
71504;BME280;59323;50.874;7.028;2023-04-19T06:12:34;102036.84;;;10.90;78.58
71504;BME280;59323;50.874;7.028;2023-04-19T06:14:59;102036.16;;;10.93;78.32
71504;BME280;59323;50.874;7.028;2023-04-19T06:17:25;102036.97;;;10.93;77.78
71504;BME280;59323;50.874;7.028;2023-04-19T06:19:51;102034.66;;;10.83;78.24
71504;BME280;59323;50.874;7.028;2023-04-19T06:22:16;102032.72;;;10.84;77.91
71504;BME280;59323;50.874;7.028;2023-04-19T06:24:43;102032.19;;;10.90;77.16
71504;BME280;59323;50.874;7.028;2023-04-19T06:27:09;102034.44;;;10.88;77.46
71504;BME280;59323;50.874;7.028;2023-04-19T06:29:35;102035.13;;;10.85;77.87
71504;BME280;59323;50.874;7.028;2023-04-19T06:32:00;102045.44;;;10.92;76.95
71504;BME280;59323;50.874;7.028;2023-04-19T06:34:25;102034.34;;;10.97;76.65
71504;BME280;59323;50.874;7.028;2023-04-19T06:36:51;102034.34;;;10.97;76.43
71504;BME280;59323;50.874;7.028;2023-04-19T06:39:16;102034.69;;;10.95;76.17
71504;BME280;59323;50.874;7.028;2023-04-19T06:41:42;102025.28;;;10.93;76.54
71504;BME280;59323;50.874;7.028;2023-04-19T06:44:07;102025.75;;;10.95;75.47
71504;BME280;59323;50.874;7.028;2023-04-19T06:46:32;102026.06;;;10.93;76.19
71504;BME280;59323;50.874;7.028;2023-04-19T06:48:58;102024.41;;;11.01;75.82
71504;BME280;59323;50.874;7.028;2023-04-19T06:51:23;102035.09;;;11.06;76.42
71504;BME280;59323;50.874;7.028;2023-04-19T06:53:49;102029.66;;;11.06;76.30
71504;BME280;59323;50.874;7.028;2023-04-19T06:56:15;102025.94;;;11.10;76.42
71504;BME280;59323;50.874;7.028;2023-04-19T06:58:40;102011.72;;;11.05;75.57
71504;BME280;59323;50.874;7.028;2023-04-19T07:01:06;102026.50;;;11.16;74.78
71504;BME280;59323;50.874;7.028;2023-04-19T07:03:31;102024.38;;;11.22;74.11
71504;BME280;59323;50.874;7.028;2023-04-19T07:05:57;102017.13;;;11.26;73.26
71504;BME280;59323;50.874;7.028;2023-04-19T07:08:23;102024.16;;;11.27;73.73
71504;BME280;59323;50.874;7.028;2023-04-19T07:10:49;102012.81;;;11.25;74.63
71504;BME280;59323;50.874;7.028;2023-04-19T07:13:14;102018.28;;;11.37;73.36
71504;BME280;59323;50.874;7.028;2023-04-19T07:15:39;102021.81;;;11.50;72.05
71504;BME280;59323;50.874;7.028;2023-04-19T07:18:05;102016.59;;;11.57;72.17
71504;BME280;59323;50.874;7.028;2023-04-19T07:20:31;102009.78;;;11.63;71.25
71504;BME280;59323;50.874;7.028;2023-04-19T07:22:59;102018.53;;;11.68;71.15
71504;BME280;59323;50.874;7.028;2023-04-19T07:25:25;102013.59;;;11.83;70.73
71504;BME280;59323;50.874;7.028;2023-04-19T07:27:54;102013.13;;;11.93;71.17
71504;BME280;59323;50.874;7.028;2023-04-19T07:30:20;102005.84;;;12.09;68.72
71504;BME280;59323;50.874;7.028;2023-04-19T07:32:46;102012.38;;;12.45;68.72
71504;BME280;59323;50.874;7.028;2023-04-19T07:35:11;102004.09;;;12.69;68.05
71504;BME280;59323;50.874;7.028;2023-04-19T07:37:37;102010.84;;;12.87;65.62
71504;BME280;59323;50.874;7.028;2023-04-19T07:40:03;102009.44;;;12.93;65.72
71504;BME280;59323;50.874;7.028;2023-04-19T07:42:29;102010.31;;;12.97;64.51
71504;BME280;59323;50.874;7.028;2023-04-19T07:44:55;102006.66;;;13.06;65.82
71504;BME280;59323;50.874;7.028;2023-04-19T07:47:20;102016.53;;;13.10;64.44
71504;BME280;59323;50.874;7.028;2023-04-19T07:49:46;102009.09;;;13.23;64.39
71504;BME280;59323;50.874;7.028;2023-04-19T07:52:11;102014.84;;;13.33;64.92
71504;BME280;59323;50.874;7.028;2023-04-19T07:54:37;101999.06;;;13.43;61.40
71504;BME280;59323;50.874;7.028;2023-04-19T07:57:06;102001.09;;;13.77;61.93
71504;BME280;59323;50.874;7.028;2023-04-19T07:59:42;101990.88;;;14.09;61.20
71504;BME280;59323;50.874;7.028;2023-04-19T08:02:14;101998.66;;;14.42;57.78
71504;BME280;59323;50.874;7.028;2023-04-19T08:05:06;101998.41;;;14.89;57.66
71504;BME280;59323;50.874;7.028;2023-04-19T08:10:29;101989.09;;;15.59;55.93
71504;BME280;59323;50.874;7.028;2023-04-19T08:12:55;101999.03;;;15.94;53.40
71504;BME280;59323;50.874;7.028;2023-04-19T08:15:20;101995.91;;;15.95;52.75
71504;BME280;59323;50.874;7.028;2023-04-19T08:17:51;102005.41;;;16.28;53.30
71504;BME280;59323;50.874;7.028;2023-04-19T08:20:16;101990.03;;;16.53;51.86
71504;BME280;59323;50.874;7.028;2023-04-19T08:22:42;101994.38;;;16.88;52.75
71504;BME280;59323;50.874;7.028;2023-04-19T08:25:08;101989.63;;;16.85;49.18
71504;BME280;59323;50.874;7.028;2023-04-19T08:27:35;101990.94;;;16.94;47.88
71504;BME280;59323;50.874;7.028;2023-04-19T08:30:00;101991.47;;;17.10;48.68
71504;BME280;59323;50.874;7.028;2023-04-19T08:32:25;101985.56;;;17.08;48.03
71504;BME280;59323;50.874;7.028;2023-04-19T08:34:51;101988.84;;;17.25;48.74
71504;BME280;59323;50.874;7.028;2023-04-19T08:37:17;101985.59;;;17.56;47.01
71504;BME280;59323;50.874;7.028;2023-04-19T08:39:42;101984.75;;;17.52;45.00
71504;BME280;59323;50.874;7.028;2023-04-19T08:42:08;101975.72;;;17.52;45.31
71504;BME280;59323;50.874;7.028;2023-04-19T08:44:35;101975.84;;;17.62;45.92
71504;BME280;59323;50.874;7.028;2023-04-19T08:47:03;101972.00;;;17.74;46.14
71504;BME280;59323;50.874;7.028;2023-04-19T08:49:29;101977.75;;;17.58;42.68
71504;BME280;59323;50.874;7.028;2023-04-19T08:51:57;101976.22;;;17.61;43.84
71504;BME280;59323;50.874;7.028;2023-04-19T08:54:23;101959.06;;;17.78;43.30
71504;BME280;59323;50.874;7.028;2023-04-19T08:56:51;101958.31;;;17.85;44.27
71504;BME280;59323;50.874;7.028;2023-04-19T08:59:19;101958.09;;;18.18;44.93
71504;BME280;59323;50.874;7.028;2023-04-19T09:02:05;101969.63;;;18.42;43.78
71504;BME280;59323;50.874;7.028;2023-04-19T09:04:32;101951.84;;;18.21;42.28
71504;BME280;59323;50.874;7.028;2023-04-19T09:06:57;101950.69;;;18.22;39.49
71504;BME280;59323;50.874;7.028;2023-04-19T09:12:36;101953.84;;;18.24;41.84
71504;BME280;59323;50.874;7.028;2023-04-19T09:15:03;101945.41;;;17.92;40.13
71504;BME280;59323;50.874;7.028;2023-04-19T09:17:39;101942.06;;;17.65;40.07
71504;BME280;59323;50.874;7.028;2023-04-19T09:21:03;101954.75;;;17.29;40.50
71504;BME280;59323;50.874;7.028;2023-04-19T09:26:57;101948.50;;;17.32;40.70
71504;BME280;59323;50.874;7.028;2023-04-19T09:29:23;101932.94;;;17.54;42.70
71504;BME280;59323;50.874;7.028;2023-04-19T09:32:03;101934.97;;;17.61;41.78
71504;BME280;59323;50.874;7.028;2023-04-19T09:34:29;101927.22;;;17.73;41.12
71504;BME280;59323;50.874;7.028;2023-04-19T09:37:15;101931.94;;;17.73;40.33
71504;BME280;59323;50.874;7.028;2023-04-19T09:39:44;101930.72;;;17.67;41.60
71504;BME280;59323;50.874;7.028;2023-04-19T09:42:09;101930.78;;;17.74;40.11
71504;BME280;59323;50.874;7.028;2023-04-19T09:44:41;101919.03;;;17.81;40.56
71504;BME280;59323;50.874;7.028;2023-04-19T09:47:26;101919.22;;;18.23;41.96
71504;BME280;59323;50.874;7.028;2023-04-19T09:50:10;101918.53;;;18.58;39.77
71504;BME280;59323;50.874;7.028;2023-04-19T09:52:36;101925.56;;;18.38;39.50
71504;BME280;59323;50.874;7.028;2023-04-19T09:55:04;101924.81;;;18.48;39.88
71504;BME280;59323;50.874;7.028;2023-04-19T09:57:31;101902.78;;;18.41;39.35
71504;BME280;59323;50.874;7.028;2023-04-19T09:59:58;101915.00;;;18.58;40.20
71504;BME280;59323;50.874;7.028;2023-04-19T10:02:25;101902.06;;;18.65;37.84
71504;BME280;59323;50.874;7.028;2023-04-19T10:04:52;101910.22;;;18.37;36.72
71504;BME280;59323;50.874;7.028;2023-04-19T10:07:19;101910.88;;;18.02;37.93
71504;BME280;59323;50.874;7.028;2023-04-19T10:09:46;101902.09;;;17.75;37.98
71504;BME280;59323;50.874;7.028;2023-04-19T10:12:14;101899.22;;;17.57;37.83
71504;BME280;59323;50.874;7.028;2023-04-19T10:14:41;101913.66;;;17.47;39.34
71504;BME280;59323;50.874;7.028;2023-04-19T10:17:07;101905.41;;;17.43;39.05
71504;BME280;59323;50.874;7.028;2023-04-19T10:19:34;101897.59;;;17.53;38.58
71504;BME280;59323;50.874;7.028;2023-04-19T10:22:00;101903.63;;;17.69;39.20
71504;BME280;59323;50.874;7.028;2023-04-19T10:24:29;101901.53;;;17.55;37.95
71504;BME280;59323;50.874;7.028;2023-04-19T10:27:08;101899.97;;;17.54;38.46
71504;BME280;59323;50.874;7.028;2023-04-19T10:32:16;101895.63;;;17.53;38.67
71504;BME280;59323;50.874;7.028;2023-04-19T10:34:42;101887.47;;;17.64;38.63
71504;BME280;59323;50.874;7.028;2023-04-19T10:37:11;101888.00;;;17.84;38.66
71504;BME280;59323;50.874;7.028;2023-04-19T10:39:42;101888.56;;;18.25;38.56
71504;BME280;59323;50.874;7.028;2023-04-19T10:42:08;101897.63;;;18.25;35.78
71504;BME280;59323;50.874;7.028;2023-04-19T10:44:33;101884.56;;;18.12;35.12
71504;BME280;59323;50.874;7.028;2023-04-19T10:46:59;101875.56;;;18.18;33.37
71504;BME280;59323;50.874;7.028;2023-04-19T10:49:27;101882.63;;;18.12;33.96
71504;BME280;59323;50.874;7.028;2023-04-19T10:51:53;101869.59;;;17.95;33.60
71504;BME280;59323;50.874;7.028;2023-04-19T10:54:40;101866.16;;;18.23;33.02
71504;BME280;59323;50.874;7.028;2023-04-19T10:57:09;101877.53;;;18.18;33.51
71504;BME280;59323;50.874;7.028;2023-04-19T10:59:38;101870.38;;;17.95;31.21
71504;BME280;59323;50.874;7.028;2023-04-19T11:07:17;101862.25;;;18.24;33.83
71504;BME280;59323;50.874;7.028;2023-04-19T11:09:45;101852.03;;;18.38;32.47
71504;BME280;59323;50.874;7.028;2023-04-19T11:12:18;101851.69;;;18.58;34.27
71504;BME280;59323;50.874;7.028;2023-04-19T11:14:46;101843.81;;;18.60;32.77
71504;BME280;59323;50.874;7.028;2023-04-19T11:17:26;101836.72;;;18.48;32.26
71504;BME280;59323;50.874;7.028;2023-04-19T11:19:59;101846.16;;;18.54;33.40
71504;BME280;59323;50.874;7.028;2023-04-19T11:22:47;101841.84;;;18.57;34.03
71504;BME280;59323;50.874;7.028;2023-04-19T11:25:17;101839.47;;;18.41;33.76
71504;BME280;59323;50.874;7.028;2023-04-19T11:27:48;101833.97;;;18.37;35.09
71504;BME280;59323;50.874;7.028;2023-04-19T11:30:16;101832.34;;;18.22;35.79
71504;BME280;59323;50.874;7.028;2023-04-19T11:32:56;101831.16;;;18.20;34.07
71504;BME280;59323;50.874;7.028;2023-04-19T11:35:23;101835.91;;;18.26;35.65
71504;BME280;59323;50.874;7.028;2023-04-19T11:37:50;101828.81;;;18.22;34.47
71504;BME280;59323;50.874;7.028;2023-04-19T11:40:17;101817.03;;;18.21;35.71
71504;BME280;59323;50.874;7.028;2023-04-19T11:42:44;101822.16;;;18.33;35.29
71504;BME280;59323;50.874;7.028;2023-04-19T11:45:10;101822.06;;;18.09;33.76
71504;BME280;59323;50.874;7.028;2023-04-19T11:47:49;101821.31;;;18.15;34.46
71504;BME280;59323;50.874;7.028;2023-04-19T11:53:09;101811.53;;;18.21;34.63
71504;BME280;59323;50.874;7.028;2023-04-19T11:55:35;101816.25;;;18.35;33.00
71504;BME280;59323;50.874;7.028;2023-04-19T11:58:00;101820.91;;;18.13;31.97
71504;BME280;59323;50.874;7.028;2023-04-19T12:00:27;101816.56;;;17.98;33.14
71504;BME280;59323;50.874;7.028;2023-04-19T12:02:53;101818.13;;;17.99;30.95
71504;BME280;59323;50.874;7.028;2023-04-19T12:05:18;101816.56;;;18.01;33.61
71504;BME280;59323;50.874;7.028;2023-04-19T12:08:02;101813.03;;;18.01;31.49
71504;BME280;59323;50.874;7.028;2023-04-19T12:10:31;101820.19;;;18.23;33.79
71504;BME280;59323;50.874;7.028;2023-04-19T12:12:57;101820.88;;;18.02;31.34
71504;BME280;59323;50.874;7.028;2023-04-19T12:15:23;101818.13;;;18.02;32.55
71504;BME280;59323;50.874;7.028;2023-04-19T12:18:04;101804.41;;;18.10;30.63
71504;BME280;59323;50.874;7.028;2023-04-19T12:20:37;101812.66;;;18.10;32.39
71504;BME280;59323;50.874;7.028;2023-04-19T12:23:06;101796.47;;;17.87;30.46
71504;BME280;59323;50.874;7.028;2023-04-19T12:25:35;101801.22;;;18.00;31.68
71504;BME280;59323;50.874;7.028;2023-04-19T12:28:02;101806.72;;;18.00;31.08
71504;BME280;59323;50.874;7.028;2023-04-19T12:30:28;101805.53;;;17.87;30.80
71504;BME280;59323;50.874;7.028;2023-04-19T12:32:53;101797.97;;;17.66;31.66
71504;BME280;59323;50.874;7.028;2023-04-19T12:35:23;101801.84;;;17.58;29.83
71504;BME280;59323;50.874;7.028;2023-04-19T12:37:50;101794.28;;;17.44;30.33
71504;BME280;59323;50.874;7.028;2023-04-19T12:40:16;101792.19;;;17.17;30.01
71504;BME280;59323;50.874;7.028;2023-04-19T12:42:41;101791.06;;;17.25;30.61
71504;BME280;59323;50.874;7.028;2023-04-19T12:45:07;101788.00;;;17.44;31.90
71504;BME280;59323;50.874;7.028;2023-04-19T12:47:32;101791.66;;;17.62;30.71
71504;BME280;59323;50.874;7.028;2023-04-19T12:49:57;101791.34;;;17.74;27.87
71504;BME280;59323;50.874;7.028;2023-04-19T12:52:23;101779.94;;;17.69;30.40
71504;BME280;59323;50.874;7.028;2023-04-19T12:54:48;101774.03;;;17.70;30.93
71504;BME280;59323;50.874;7.028;2023-04-19T12:57:14;101782.59;;;17.58;28.99
71504;BME280;59323;50.874;7.028;2023-04-19T12:59:39;101779.72;;;17.37;28.35
71504;BME280;59323;50.874;7.028;2023-04-19T13:02:05;101761.28;;;17.34;30.25
71504;BME280;59323;50.874;7.028;2023-04-19T13:04:31;101769.56;;;17.44;29.63
71504;BME280;59323;50.874;7.028;2023-04-19T13:06:56;101750.34;;;17.48;29.90
71504;BME280;59323;50.874;7.028;2023-04-19T13:09:21;101754.28;;;17.51;28.39